Time,TemperatureF,DewpointF,PressureIn,WindDirection,WindDirectionDegrees,WindSpeedMPH,WindSpeedGustMPH,Humidity,HourlyPrecipIn,Conditions,Clouds,dailyrainin,SolarRadiationWatts/m^2,SoftwareType,DateUTC
2014-10-31 00:01:00,52.2,19.1,30.15,West,270,2.3,2.3,27,0.00,CLR,FEW,0.00,0.0,WeatherDisplay:10.37,2014-10-31 07:01:00,
2014-10-31 00:06:00,52.0,19.8,30.15,West,270,2.3,2.3,28,0.00,CLR,FEW,0.00,0.0,WeatherDisplay:10.37,2014-10-31 07:06:00,
2014-10-31 00:11:00,51.6,19.5,30.15,WSW,248,2.3,0.0,28,0.00,CLR,FEW,0.00,0.0,WeatherDisplay:10.37,2014-10-31 07:11:00,
2014-10-31 00:16:00,51.1,19.9,30.15,West,270,2.4,2.4,29,0.00,CLR,FEW,0.00,0.0,WeatherDisplay:10.37,2014-10-31 07:16:00,
2014-10-31 00:21:00,50.7,19.6,30.15,WSW,248,4.6,4.6,29,0.00,CLR,FEW,0.00,0.0,WeatherDisplay:10.37,2014-10-31 07:21:00,
2014-10-31 00:26:00,50.9,19.7,30.15,West,270,3.3,3.3,29,0.00,CLR,FEW,0.00,0.0,WeatherDisplay:10.37,2014-10-31 07:26:00,
2014-10-31 00:31:00,51.1,19.9,30.15,WNW,292,1.4,1.4,29,0.00,CLR,FEW,0.00,0.0,WeatherDisplay:10.37,2014-10-31 07:31:00,
2014-10-31 00:36:00,51.3,20.0,30.15,SSE,158,2.4,0.0,29,0.00,CLR,FEW,0.00,0.0,WeatherDisplay:10.37,2014-10-31 07:36:00,
2014-10-31 00:41:00,51.3,20.0,30.15,WNW,292,2.9,3.1,29,0.00,CLR,FEW,0.00,0.0,WeatherDisplay:10.37,2014-10-31 07:41:00,
2014-10-31 00:46:00,51.3,20.0,30.15,WSW,248,2.4,2.4,29,0.00,CLR,FEW,0.00,0.0,WeatherDisplay:10.37,2014-10-31 07:46:00,
2014-10-31 00:51:00,51.1,19.9,30.15,WSW,248,3.5,3.5,29,0.00,CLR,FEW,0.00,0.0,WeatherDisplay:10.37,2014-10-31 07:51:00,
2014-10-31 00:56:00,50.9,19.7,30.15,West,270,0.0,0.0,29,0.00,CLR,FEW,0.00,0.0,WeatherDisplay:10.37,2014-10-31 07:56:00,
2014-10-31 01:01:00,50.7,19.6,30.15,WSW,248,2.3,2.3,29,0.00,CLR,FEW,0.00,0.0,WeatherDisplay:10.37,2014-10-31 08:01:00,
2014-10-31 01:06:00,50.4,19.3,30.15,WSW,248,2.3,2.3,29,0.00,CLR,FEW,0.00,0.0,WeatherDisplay:10.37,2014-10-31 08:06:00,
2014-10-31 01:11:00,50.4,20.1,30.15,WNW,292,3.5,3.5,30,0.00,CLR,FEW,0.00,0.0,WeatherDisplay:10.37,2014-10-31 08:11:00,
2014-10-31 01:16:00,50.4,19.3,30.15,WNW,292,2.9,0.0,29,0.00,CLR,FEW,0.00,0.0,WeatherDisplay:10.37,2014-10-31 08:16:00,
2014-10-31 01:21:00,50.4,19.3,30.15,West,270,2.3,2.3,29,0.00,CLR,FEW,0.00,0.0,WeatherDisplay:10.37,2014-10-31 08:21:00,
2014-10-31 01:26:00,50.7,20.4,30.15,West,270,3.5,3.5,30,0.00,CLR,FEW,0.00,0.0,WeatherDisplay:10.37,2014-10-31 08:26:00,
2014-10-31 01:31:00,50.7,20.4,30.15,West,270,3.5,3.5,30,0.00,CLR,FEW,0.00,0.0,WeatherDisplay:10.37,2014-10-31 08:31:00,
2014-10-31 01:36:00,51.1,19.9,30.15,WNW,292,2.4,2.4,29,0.00,CLR,FEW,0.00,0.0,WeatherDisplay:10.37,2014-10-31 08:36:00,
2014-10-31 01:41:00,52.9,20.6,30.15,WSW,248,3.5,3.5,28,0.00,CLR,FEW,0.00,0.0,WeatherDisplay:10.37,2014-10-31 08:41:00,
2014-10-31 01:46:00,53.1,20.8,30.15,South,180,2.3,2.3,28,0.00,CLR,FEW,0.00,0.0,WeatherDisplay:10.37,2014-10-31 08:46:00,
2014-10-31 01:51:00,53.1,20.8,30.15,South,180,0.0,0.0,28,0.00,CLR,FEW,0.00,0.0,WeatherDisplay:10.37,2014-10-31 08:51:00,
2014-10-31 01:56:00,52.3,20.2,30.15,WSW,248,2.9,2.9,28,0.00,CLR,FEW,0.00,0.0,WeatherDisplay:10.37,2014-10-31 08:56:00,
2014-10-31 02:01:00,52.2,20.0,30.15,WSW,248,0.0,0.0,28,0.00,CLR,FEW,0.00,0.0,WeatherDisplay:10.37,2014-10-31 09:01:00,
2014-10-31 02:06:00,51.3,20.0,30.15,West,270,3.5,3.5,29,0.00,CLR,FEW,0.00,0.0,WeatherDisplay:10.37,2014-10-31 09:06:00,
2014-10-31 02:11:00,51.1,19.9,30.15,WNW,292,2.6,2.6,29,0.00,CLR,FEW,0.00,0.0,WeatherDisplay:10.37,2014-10-31 09:11:00,
2014-10-31 02:16:00,50.5,19.4,30.15,WNW,292,2.3,2.4,29,0.00,CLR,FEW,0.00,0.0,WeatherDisplay:10.37,2014-10-31 09:16:00,
2014-10-31 02:21:00,50.5,19.4,30.15,WSW,248,2.4,2.4,29,0.00,CLR,FEW,0.00,0.0,WeatherDisplay:10.37,2014-10-31 09:21:00,
2014-10-31 02:26:00,50.0,18.9,30.15,WNW,292,4.6,4.6,29,0.00,CLR,FEW,0.00,0.0,WeatherDisplay:10.37,2014-10-31 09:26:00,
2014-10-31 02:31:00,50.0,18.9,30.15,WSW,248,2.9,2.9,29,0.00,CLR,FEW,0.00,0.0,WeatherDisplay:10.37,2014-10-31 09:31:00,
2014-10-31 02:36:00,50.2,19.1,30.15,WSW,248,2.3,2.3,29,0.00,CLR,FEW,0.00,0.0,WeatherDisplay:10.37,2014-10-31 09:36:00,
2014-10-31 02:41:00,50.0,18.9,30.15,WNW,292,2.3,2.3,29,0.00,CLR,FEW,0.00,0.0,WeatherDisplay:10.37,2014-10-31 09:41:00,
2014-10-31 02:46:00,49.8,18.8,30.15,WNW,292,2.4,2.4,29,0.00,CLR,FEW,0.00,0.0,WeatherDisplay:10.37,2014-10-31 09:46:00,
2014-10-31 02:51:00,49.6,18.6,30.15,SSW,202,2.4,2.4,29,0.00,CLR,FEW,0.00,0.0,WeatherDisplay:10.37,2014-10-31 09:51:00,
2014-10-31 02:56:00,49.3,18.3,30.15,WNW,292,2.3,2.3,29,0.00,CLR,FEW,0.00,0.0,WeatherDisplay:10.37,2014-10-31 09:56:00,
2014-10-31 03:01:00,49.3,19.1,30.15,WNW,292,2.3,2.4,30,0.00,CLR,FEW,0.00,0.0,WeatherDisplay:10.37,2014-10-31 10:01:00,
2014-10-31 03:06:00,48.9,18.8,30.15,West,270,0.0,0.0,30,0.00,CLR,FEW,0.00,0.0,WeatherDisplay:10.37,2014-10-31 10:06:00,